sensor_id;sensor_type;location;lat;lon;timestamp;temperature;humidity
53282;DHT22;39167;52.794;6.892;2022-07-18T00:01:43;17.70;99.90
53282;DHT22;39167;52.794;6.892;2022-07-18T00:04:09;17.60;99.90
53282;DHT22;39167;52.794;6.892;2022-07-18T00:06:35;17.60;99.90
53282;DHT22;39167;52.794;6.892;2022-07-18T00:09:01;17.60;99.90
53282;DHT22;39167;52.794;6.892;2022-07-18T00:11:27;17.60;99.90
53282;DHT22;39167;52.794;6.892;2022-07-18T00:13:53;17.50;99.90
53282;DHT22;39167;52.794;6.892;2022-07-18T00:16:18;17.50;99.90
53282;DHT22;39167;52.794;6.892;2022-07-18T00:18:44;17.50;99.90
53282;DHT22;39167;52.794;6.892;2022-07-18T00:21:10;17.40;99.90
53282;DHT22;39167;52.794;6.892;2022-07-18T00:23:36;17.40;99.90
53282;DHT22;39167;52.794;6.892;2022-07-18T00:26:03;17.40;99.90
53282;DHT22;39167;52.794;6.892;2022-07-18T00:28:28;17.40;99.90
53282;DHT22;39167;52.794;6.892;2022-07-18T00:30:54;17.40;99.90
53282;DHT22;39167;52.794;6.892;2022-07-18T00:33:20;17.40;99.90
53282;DHT22;39167;52.794;6.892;2022-07-18T00:35:46;17.40;99.90
53282;DHT22;39167;52.794;6.892;2022-07-18T00:38:11;17.30;99.90
53282;DHT22;39167;52.794;6.892;2022-07-18T00:40:37;17.20;99.90
53282;DHT22;39167;52.794;6.892;2022-07-18T00:43:03;17.20;99.90
53282;DHT22;39167;52.794;6.892;2022-07-18T00:45:29;17.20;99.90
53282;DHT22;39167;52.794;6.892;2022-07-18T00:47:55;17.20;99.90
53282;DHT22;39167;52.794;6.892;2022-07-18T00:50:22;17.20;99.90
53282;DHT22;39167;52.794;6.892;2022-07-18T00:52:48;17.20;99.90
53282;DHT22;39167;52.794;6.892;2022-07-18T00:55:14;17.20;99.90
53282;DHT22;39167;52.794;6.892;2022-07-18T00:57:41;17.20;99.90
53282;DHT22;39167;52.794;6.892;2022-07-18T01:00:09;17.10;99.90
53282;DHT22;39167;52.794;6.892;2022-07-18T01:02:54;17.10;99.90
53282;DHT22;39167;52.794;6.892;2022-07-18T01:05:19;17.10;99.90
53282;DHT22;39167;52.794;6.892;2022-07-18T01:07:45;17.10;99.90
53282;DHT22;39167;52.794;6.892;2022-07-18T01:10:11;17.00;99.90
53282;DHT22;39167;52.794;6.892;2022-07-18T01:12:37;17.00;99.90
53282;DHT22;39167;52.794;6.892;2022-07-18T01:15:04;16.90;99.90
53282;DHT22;39167;52.794;6.892;2022-07-18T01:17:30;16.90;99.90
53282;DHT22;39167;52.794;6.892;2022-07-18T01:19:56;16.90;99.90
53282;DHT22;39167;52.794;6.892;2022-07-18T01:22:22;16.80;99.90
53282;DHT22;39167;52.794;6.892;2022-07-18T01:24:48;16.80;99.90
53282;DHT22;39167;52.794;6.892;2022-07-18T01:27:19;16.80;99.90
53282;DHT22;39167;52.794;6.892;2022-07-18T01:29:46;16.70;99.90
53282;DHT22;39167;52.794;6.892;2022-07-18T01:32:13;16.70;99.90
53282;DHT22;39167;52.794;6.892;2022-07-18T01:34:39;16.70;99.90
53282;DHT22;39167;52.794;6.892;2022-07-18T01:37:06;16.70;99.90
53282;DHT22;39167;52.794;6.892;2022-07-18T01:39:33;16.70;99.90
53282;DHT22;39167;52.794;6.892;2022-07-18T01:42:06;16.70;99.90
53282;DHT22;39167;52.794;6.892;2022-07-18T01:44:34;16.60;99.90
53282;DHT22;39167;52.794;6.892;2022-07-18T01:47:00;16.60;99.90
53282;DHT22;39167;52.794;6.892;2022-07-18T01:49:26;16.60;99.90
53282;DHT22;39167;52.794;6.892;2022-07-18T01:51:53;16.60;99.90
53282;DHT22;39167;52.794;6.892;2022-07-18T01:54:24;16.60;99.90
53282;DHT22;39167;52.794;6.892;2022-07-18T01:56:50;16.50;99.90
53282;DHT22;39167;52.794;6.892;2022-07-18T01:59:17;16.50;99.90
53282;DHT22;39167;52.794;6.892;2022-07-18T02:01:43;16.40;99.90
53282;DHT22;39167;52.794;6.892;2022-07-18T02:04:09;16.40;99.90
53282;DHT22;39167;52.794;6.892;2022-07-18T02:06:34;16.40;99.90
53282;DHT22;39167;52.794;6.892;2022-07-18T02:09:00;16.30;99.90
53282;DHT22;39167;52.794;6.892;2022-07-18T02:11:26;16.30;99.90
53282;DHT22;39167;52.794;6.892;2022-07-18T02:13:52;16.30;99.90
53282;DHT22;39167;52.794;6.892;2022-07-18T02:16:17;16.30;99.90
53282;DHT22;39167;52.794;6.892;2022-07-18T02:18:43;16.30;99.90
53282;DHT22;39167;52.794;6.892;2022-07-18T02:21:09;16.30;99.90
53282;DHT22;39167;52.794;6.892;2022-07-18T02:23:36;16.30;99.90
53282;DHT22;39167;52.794;6.892;2022-07-18T02:26:02;16.30;99.90
53282;DHT22;39167;52.794;6.892;2022-07-18T02:28:28;16.30;99.90
53282;DHT22;39167;52.794;6.892;2022-07-18T02:30:54;16.30;99.90
53282;DHT22;39167;52.794;6.892;2022-07-18T02:33:20;16.20;99.90
53282;DHT22;39167;52.794;6.892;2022-07-18T02:35:45;16.20;99.90
53282;DHT22;39167;52.794;6.892;2022-07-18T02:38:11;16.20;99.90
53282;DHT22;39167;52.794;6.892;2022-07-18T02:40:38;16.10;99.90
53282;DHT22;39167;52.794;6.892;2022-07-18T02:43:04;16.10;99.90
53282;DHT22;39167;52.794;6.892;2022-07-18T02:45:30;16.10;99.90
53282;DHT22;39167;52.794;6.892;2022-07-18T02:47:55;16.00;99.90
53282;DHT22;39167;52.794;6.892;2022-07-18T02:50:21;16.10;99.90
53282;DHT22;39167;52.794;6.892;2022-07-18T02:52:47;16.10;99.90
53282;DHT22;39167;52.794;6.892;2022-07-18T02:55:14;16.10;99.90
53282;DHT22;39167;52.794;6.892;2022-07-18T02:57:40;16.00;99.90
53282;DHT22;39167;52.794;6.892;2022-07-18T03:00:11;16.10;99.90
53282;DHT22;39167;52.794;6.892;2022-07-18T03:02:38;16.00;99.90
53282;DHT22;39167;52.794;6.892;2022-07-18T03:05:04;16.00;99.90
53282;DHT22;39167;52.794;6.892;2022-07-18T03:07:30;16.10;99.90
53282;DHT22;39167;52.794;6.892;2022-07-18T03:09:56;16.00;99.90
53282;DHT22;39167;52.794;6.892;2022-07-18T03:12:22;16.00;99.90
53282;DHT22;39167;52.794;6.892;2022-07-18T03:14:48;15.90;99.90
53282;DHT22;39167;52.794;6.892;2022-07-18T03:17:14;15.90;99.90
53282;DHT22;39167;52.794;6.892;2022-07-18T03:19:40;15.90;99.90
53282;DHT22;39167;52.794;6.892;2022-07-18T03:22:06;15.80;99.90
53282;DHT22;39167;52.794;6.892;2022-07-18T03:24:32;15.80;99.90
53282;DHT22;39167;52.794;6.892;2022-07-18T03:26:58;15.80;99.90
53282;DHT22;39167;52.794;6.892;2022-07-18T03:29:24;15.80;99.90
53282;DHT22;39167;52.794;6.892;2022-07-18T03:31:50;15.70;99.90
53282;DHT22;39167;52.794;6.892;2022-07-18T03:34:16;15.70;99.90
53282;DHT22;39167;52.794;6.892;2022-07-18T03:36:42;15.70;99.90
53282;DHT22;39167;52.794;6.892;2022-07-18T03:39:09;15.70;99.90
53282;DHT22;39167;52.794;6.892;2022-07-18T03:41:36;15.70;99.90
53282;DHT22;39167;52.794;6.892;2022-07-18T03:44:03;15.70;99.90
53282;DHT22;39167;52.794;6.892;2022-07-18T03:46:29;15.60;99.90
53282;DHT22;39167;52.794;6.892;2022-07-18T03:48:56;15.60;99.90
53282;DHT22;39167;52.794;6.892;2022-07-18T03:51:22;15.60;99.90
53282;DHT22;39167;52.794;6.892;2022-07-18T03:53:48;15.60;99.90
53282;DHT22;39167;52.794;6.892;2022-07-18T03:56:13;15.60;99.90
53282;DHT22;39167;52.794;6.892;2022-07-18T03:58:39;15.60;99.90
53282;DHT22;39167;52.794;6.892;2022-07-18T04:01:05;15.60;99.90
53282;DHT22;39167;52.794;6.892;2022-07-18T04:03:30;15.60;99.90
53282;DHT22;39167;52.794;6.892;2022-07-18T04:05:56;15.70;99.90
53282;DHT22;39167;52.794;6.892;2022-07-18T04:08:22;15.70;99.90
53282;DHT22;39167;52.794;6.892;2022-07-18T04:10:48;15.60;99.90
53282;DHT22;39167;52.794;6.892;2022-07-18T04:13:13;15.60;99.90
53282;DHT22;39167;52.794;6.892;2022-07-18T04:15:39;15.60;99.90
53282;DHT22;39167;52.794;6.892;2022-07-18T04:18:06;15.60;99.90
53282;DHT22;39167;52.794;6.892;2022-07-18T04:20:32;15.60;99.90
53282;DHT22;39167;52.794;6.892;2022-07-18T04:23:00;15.60;99.90
53282;DHT22;39167;52.794;6.892;2022-07-18T04:25:32;15.60;99.90
53282;DHT22;39167;52.794;6.892;2022-07-18T04:27:58;15.60;99.90
53282;DHT22;39167;52.794;6.892;2022-07-18T04:30:25;15.60;99.90
53282;DHT22;39167;52.794;6.892;2022-07-18T04:32:52;15.60;99.90
53282;DHT22;39167;52.794;6.892;2022-07-18T04:35:18;15.70;99.90
53282;DHT22;39167;52.794;6.892;2022-07-18T04:37:43;15.70;99.90
53282;DHT22;39167;52.794;6.892;2022-07-18T04:40:10;15.70;99.90
53282;DHT22;39167;52.794;6.892;2022-07-18T04:42:37;15.70;99.90
53282;DHT22;39167;52.794;6.892;2022-07-18T04:45:04;15.70;99.90
53282;DHT22;39167;52.794;6.892;2022-07-18T04:47:30;15.70;99.90
53282;DHT22;39167;52.794;6.892;2022-07-18T04:49:56;15.70;99.90
53282;DHT22;39167;52.794;6.892;2022-07-18T04:52:22;15.70;99.90
53282;DHT22;39167;52.794;6.892;2022-07-18T04:54:48;15.70;99.90
53282;DHT22;39167;52.794;6.892;2022-07-18T04:57:13;15.70;99.90
53282;DHT22;39167;52.794;6.892;2022-07-18T04:59:43;15.70;99.90
53282;DHT22;39167;52.794;6.892;2022-07-18T05:02:10;15.80;99.90
53282;DHT22;39167;52.794;6.892;2022-07-18T05:04:38;15.80;99.90
53282;DHT22;39167;52.794;6.892;2022-07-18T05:07:05;15.80;99.90
53282;DHT22;39167;52.794;6.892;2022-07-18T05:09:33;15.80;99.90
53282;DHT22;39167;52.794;6.892;2022-07-18T05:11:58;15.90;99.90
53282;DHT22;39167;52.794;6.892;2022-07-18T05:14:24;15.90;99.90
53282;DHT22;39167;52.794;6.892;2022-07-18T05:16:50;15.90;99.90
53282;DHT22;39167;52.794;6.892;2022-07-18T05:19:16;16.00;99.90
53282;DHT22;39167;52.794;6.892;2022-07-18T05:21:44;16.00;99.90
53282;DHT22;39167;52.794;6.892;2022-07-18T05:24:11;16.00;99.90
53282;DHT22;39167;52.794;6.892;2022-07-18T05:26:37;16.10;99.90
53282;DHT22;39167;52.794;6.892;2022-07-18T05:29:03;16.10;99.90
53282;DHT22;39167;52.794;6.892;2022-07-18T05:31:28;16.10;99.90
53282;DHT22;39167;52.794;6.892;2022-07-18T05:33:54;16.10;99.90
53282;DHT22;39167;52.794;6.892;2022-07-18T05:36:20;16.20;99.90
53282;DHT22;39167;52.794;6.892;2022-07-18T05:38:45;16.20;99.90
53282;DHT22;39167;52.794;6.892;2022-07-18T05:41:11;16.30;99.90
53282;DHT22;39167;52.794;6.892;2022-07-18T05:43:37;16.30;99.90
53282;DHT22;39167;52.794;6.892;2022-07-18T05:46:03;16.30;99.90
53282;DHT22;39167;52.794;6.892;2022-07-18T05:48:29;16.30;99.90
53282;DHT22;39167;52.794;6.892;2022-07-18T05:50:55;16.40;99.90
53282;DHT22;39167;52.794;6.892;2022-07-18T05:53:20;16.40;99.90
53282;DHT22;39167;52.794;6.892;2022-07-18T05:55:46;16.40;99.90
53282;DHT22;39167;52.794;6.892;2022-07-18T05:58:12;16.60;99.90
53282;DHT22;39167;52.794;6.892;2022-07-18T06:00:38;16.50;99.90
53282;DHT22;39167;52.794;6.892;2022-07-18T06:03:03;16.50;99.90
53282;DHT22;39167;52.794;6.892;2022-07-18T06:05:29;16.50;99.90
53282;DHT22;39167;52.794;6.892;2022-07-18T06:07:55;16.60;99.90
53282;DHT22;39167;52.794;6.892;2022-07-18T06:10:23;16.60;99.90
53282;DHT22;39167;52.794;6.892;2022-07-18T06:12:50;16.70;99.90
53282;DHT22;39167;52.794;6.892;2022-07-18T06:15:16;16.80;99.90
53282;DHT22;39167;52.794;6.892;2022-07-18T06:17:42;16.80;99.90
53282;DHT22;39167;52.794;6.892;2022-07-18T06:20:08;16.90;99.90
53282;DHT22;39167;52.794;6.892;2022-07-18T06:22:35;16.90;99.90
53282;DHT22;39167;52.794;6.892;2022-07-18T06:25:02;17.00;99.90
53282;DHT22;39167;52.794;6.892;2022-07-18T06:27:28;17.10;99.90
53282;DHT22;39167;52.794;6.892;2022-07-18T06:29:54;17.10;99.90
53282;DHT22;39167;52.794;6.892;2022-07-18T06:32:20;17.20;99.90
53282;DHT22;39167;52.794;6.892;2022-07-18T06:34:45;17.20;99.90
53282;DHT22;39167;52.794;6.892;2022-07-18T06:37:11;17.30;99.90
53282;DHT22;39167;52.794;6.892;2022-07-18T06:39:37;17.40;99.90
53282;DHT22;39167;52.794;6.892;2022-07-18T06:42:03;17.40;99.90
53282;DHT22;39167;52.794;6.892;2022-07-18T06:44:29;17.50;99.90
53282;DHT22;39167;52.794;6.892;2022-07-18T06:46:55;17.60;99.90
53282;DHT22;39167;52.794;6.892;2022-07-18T06:49:22;17.60;99.90
53282;DHT22;39167;52.794;6.892;2022-07-18T06:51:48;17.70;99.90
53282;DHT22;39167;52.794;6.892;2022-07-18T06:54:14;17.80;99.90
53282;DHT22;39167;52.794;6.892;2022-07-18T06:56:40;17.90;99.90
53282;DHT22;39167;52.794;6.892;2022-07-18T06:59:06;17.90;99.90
53282;DHT22;39167;52.794;6.892;2022-07-18T07:01:31;18.00;99.90
53282;DHT22;39167;52.794;6.892;2022-07-18T07:03:57;18.00;99.90
53282;DHT22;39167;52.794;6.892;2022-07-18T07:06:23;18.10;99.90
53282;DHT22;39167;52.794;6.892;2022-07-18T07:08:48;18.20;99.90
53282;DHT22;39167;52.794;6.892;2022-07-18T07:11:14;18.20;99.90
53282;DHT22;39167;52.794;6.892;2022-07-18T07:13:40;18.30;99.90
53282;DHT22;39167;52.794;6.892;2022-07-18T07:16:06;18.40;99.90
53282;DHT22;39167;52.794;6.892;2022-07-18T07:18:31;18.40;99.90
53282;DHT22;39167;52.794;6.892;2022-07-18T07:20:57;18.50;99.90
53282;DHT22;39167;52.794;6.892;2022-07-18T07:23:23;18.60;99.90
53282;DHT22;39167;52.794;6.892;2022-07-18T07:25:49;18.70;99.90
53282;DHT22;39167;52.794;6.892;2022-07-18T07:28:15;18.80;99.90
53282;DHT22;39167;52.794;6.892;2022-07-18T07:30:40;18.80;99.90
53282;DHT22;39167;52.794;6.892;2022-07-18T07:33:07;18.90;99.90
53282;DHT22;39167;52.794;6.892;2022-07-18T07:35:34;19.00;99.90
53282;DHT22;39167;52.794;6.892;2022-07-18T07:38:00;19.10;99.90
53282;DHT22;39167;52.794;6.892;2022-07-18T07:40:27;19.20;99.90
53282;DHT22;39167;52.794;6.892;2022-07-18T07:43:08;19.30;99.90
53282;DHT22;39167;52.794;6.892;2022-07-18T07:45:35;19.50;99.90
53282;DHT22;39167;52.794;6.892;2022-07-18T07:48:01;19.60;99.90
53282;DHT22;39167;52.794;6.892;2022-07-18T07:50:27;19.70;99.90
53282;DHT22;39167;52.794;6.892;2022-07-18T07:52:52;19.80;99.90
53282;DHT22;39167;52.794;6.892;2022-07-18T07:55:18;20.00;99.90
53282;DHT22;39167;52.794;6.892;2022-07-18T07:57:44;20.10;99.90
53282;DHT22;39167;52.794;6.892;2022-07-18T08:00:10;20.20;99.90
53282;DHT22;39167;52.794;6.892;2022-07-18T08:02:36;20.30;99.90
53282;DHT22;39167;52.794;6.892;2022-07-18T08:05:04;20.40;99.90
53282;DHT22;39167;52.794;6.892;2022-07-18T08:07:29;20.50;99.90
53282;DHT22;39167;52.794;6.892;2022-07-18T08:09:55;20.60;99.90
53282;DHT22;39167;52.794;6.892;2022-07-18T08:12:21;20.70;99.90
53282;DHT22;39167;52.794;6.892;2022-07-18T08:14:47;20.70;99.90
53282;DHT22;39167;52.794;6.892;2022-07-18T08:17:12;21.00;99.90
53282;DHT22;39167;52.794;6.892;2022-07-18T08:19:38;21.10;99.90
53282;DHT22;39167;52.794;6.892;2022-07-18T08:22:04;21.20;99.90
53282;DHT22;39167;52.794;6.892;2022-07-18T08:24:31;21.20;99.90
53282;DHT22;39167;52.794;6.892;2022-07-18T08:26:57;21.40;99.90
53282;DHT22;39167;52.794;6.892;2022-07-18T08:29:23;21.50;99.90
53282;DHT22;39167;52.794;6.892;2022-07-18T08:31:48;21.60;99.90
53282;DHT22;39167;52.794;6.892;2022-07-18T08:34:14;21.70;99.90
53282;DHT22;39167;52.794;6.892;2022-07-18T08:36:40;21.80;99.90
53282;DHT22;39167;52.794;6.892;2022-07-18T08:39:06;21.90;99.90
53282;DHT22;39167;52.794;6.892;2022-07-18T08:41:31;22.00;99.90
53282;DHT22;39167;52.794;6.892;2022-07-18T08:43:58;22.10;99.90
53282;DHT22;39167;52.794;6.892;2022-07-18T08:46:24;22.20;99.90
53282;DHT22;39167;52.794;6.892;2022-07-18T08:48:50;22.30;99.90
53282;DHT22;39167;52.794;6.892;2022-07-18T08:51:18;22.40;99.90
53282;DHT22;39167;52.794;6.892;2022-07-18T08:53:46;22.60;99.90
53282;DHT22;39167;52.794;6.892;2022-07-18T08:56:13;22.70;99.90
53282;DHT22;39167;52.794;6.892;2022-07-18T08:58:39;22.80;99.90
53282;DHT22;39167;52.794;6.892;2022-07-18T09:01:08;22.80;99.90
53282;DHT22;39167;52.794;6.892;2022-07-18T09:03:34;23.00;99.90
53282;DHT22;39167;52.794;6.892;2022-07-18T09:06:04;23.20;99.90
53282;DHT22;39167;52.794;6.892;2022-07-18T09:08:30;23.20;99.90
53282;DHT22;39167;52.794;6.892;2022-07-18T09:11:01;23.30;99.90
53282;DHT22;39167;52.794;6.892;2022-07-18T09:16:14;23.60;99.90
53282;DHT22;39167;52.794;6.892;2022-07-18T09:18:48;23.70;99.90
53282;DHT22;39167;52.794;6.892;2022-07-18T09:21:22;23.80;99.90
53282;DHT22;39167;52.794;6.892;2022-07-18T09:23:51;24.00;99.90
53282;DHT22;39167;52.794;6.892;2022-07-18T09:29:02;24.20;99.90
53282;DHT22;39167;52.794;6.892;2022-07-18T09:31:28;24.20;99.90
53282;DHT22;39167;52.794;6.892;2022-07-18T09:34:04;24.20;99.90
53282;DHT22;39167;52.794;6.892;2022-07-18T09:36:31;24.30;99.90
53282;DHT22;39167;52.794;6.892;2022-07-18T09:39:19;24.30;99.90
53282;DHT22;39167;52.794;6.892;2022-07-18T09:41:45;24.30;99.90
53282;DHT22;39167;52.794;6.892;2022-07-18T09:44:16;24.40;99.90
53282;DHT22;39167;52.794;6.892;2022-07-18T09:47:02;24.50;99.90
53282;DHT22;39167;52.794;6.892;2022-07-18T09:49:29;24.60;99.90
53282;DHT22;39167;52.794;6.892;2022-07-18T09:52:09;24.60;99.90
53282;DHT22;39167;52.794;6.892;2022-07-18T09:54:43;24.70;99.90
53282;DHT22;39167;52.794;6.892;2022-07-18T09:57:10;24.80;99.90
53282;DHT22;39167;52.794;6.892;2022-07-18T09:59:48;24.90;99.90
53282;DHT22;39167;52.794;6.892;2022-07-18T10:02:14;25.00;99.90
53282;DHT22;39167;52.794;6.892;2022-07-18T10:04:40;25.10;99.90
53282;DHT22;39167;52.794;6.892;2022-07-18T10:07:06;25.10;99.90
53282;DHT22;39167;52.794;6.892;2022-07-18T10:09:32;25.20;99.90
53282;DHT22;39167;52.794;6.892;2022-07-18T10:11:59;25.30;99.60
53282;DHT22;39167;52.794;6.892;2022-07-18T10:14:26;25.30;99.90
53282;DHT22;39167;52.794;6.892;2022-07-18T10:16:54;25.40;99.80
53282;DHT22;39167;52.794;6.892;2022-07-18T10:19:20;25.40;99.80
53282;DHT22;39167;52.794;6.892;2022-07-18T10:21:49;25.50;99.10
53282;DHT22;39167;52.794;6.892;2022-07-18T10:24:19;25.60;98.90
53282;DHT22;39167;52.794;6.892;2022-07-18T10:30:11;25.70;98.10
53282;DHT22;39167;52.794;6.892;2022-07-18T10:32:37;25.80;97.50
53282;DHT22;39167;52.794;6.892;2022-07-18T10:35:04;25.90;97.10
53282;DHT22;39167;52.794;6.892;2022-07-18T10:37:32;25.90;96.60
53282;DHT22;39167;52.794;6.892;2022-07-18T10:40:27;26.00;96.60
53282;DHT22;39167;52.794;6.892;2022-07-18T10:45:58;26.00;95.80
53282;DHT22;39167;52.794;6.892;2022-07-18T10:48:51;26.00;95.60
53282;DHT22;39167;52.794;6.892;2022-07-18T10:51:18;26.10;94.90
53282;DHT22;39167;52.794;6.892;2022-07-18T10:59:22;26.20;94.00
53282;DHT22;39167;52.794;6.892;2022-07-18T11:01:56;26.20;93.20
53282;DHT22;39167;52.794;6.892;2022-07-18T11:04:29;26.40;93.30
53282;DHT22;39167;52.794;6.892;2022-07-18T11:09:38;26.60;92.10
53282;DHT22;39167;52.794;6.892;2022-07-18T11:12:20;26.60;92.00
53282;DHT22;39167;52.794;6.892;2022-07-18T11:23:01;26.80;91.30
53282;DHT22;39167;52.794;6.892;2022-07-18T11:25:30;26.90;91.30
53282;DHT22;39167;52.794;6.892;2022-07-18T11:27:56;26.90;90.30
53282;DHT22;39167;52.794;6.892;2022-07-18T11:30:24;27.00;87.90
53282;DHT22;39167;52.794;6.892;2022-07-18T11:32:50;27.00;86.80
53282;DHT22;39167;52.794;6.892;2022-07-18T11:35:21;27.10;87.20
53282;DHT22;39167;52.794;6.892;2022-07-18T11:37:48;27.10;86.90
53282;DHT22;39167;52.794;6.892;2022-07-18T11:40:16;27.10;85.70
53282;DHT22;39167;52.794;6.892;2022-07-18T11:42:42;27.20;84.70
53282;DHT22;39167;52.794;6.892;2022-07-18T11:45:10;27.30;83.50
53282;DHT22;39167;52.794;6.892;2022-07-18T11:47:49;27.30;82.60
53282;DHT22;39167;52.794;6.892;2022-07-18T11:50:35;27.40;83.50
53282;DHT22;39167;52.794;6.892;2022-07-18T11:53:04;27.50;82.90
53282;DHT22;39167;52.794;6.892;2022-07-18T11:55:35;27.60;83.00
53282;DHT22;39167;52.794;6.892;2022-07-18T11:58:11;27.60;80.90
53282;DHT22;39167;52.794;6.892;2022-07-18T12:00:38;27.70;80.80
53282;DHT22;39167;52.794;6.892;2022-07-18T12:03:22;27.70;80.70
53282;DHT22;39167;52.794;6.892;2022-07-18T12:05:51;27.70;79.00
53282;DHT22;39167;52.794;6.892;2022-07-18T12:16:26;27.90;77.80
53282;DHT22;39167;52.794;6.892;2022-07-18T12:18:54;27.80;78.70
53282;DHT22;39167;52.794;6.892;2022-07-18T12:21:20;27.80;77.50
53282;DHT22;39167;52.794;6.892;2022-07-18T12:23:46;27.70;78.60
53282;DHT22;39167;52.794;6.892;2022-07-18T12:26:31;27.80;78.80
53282;DHT22;39167;52.794;6.892;2022-07-18T12:29:05;27.70;76.90
53282;DHT22;39167;52.794;6.892;2022-07-18T12:31:38;27.70;78.90
53282;DHT22;39167;52.794;6.892;2022-07-18T12:34:09;27.70;79.80
53282;DHT22;39167;52.794;6.892;2022-07-18T12:36:56;27.70;79.40
53282;DHT22;39167;52.794;6.892;2022-07-18T12:39:32;27.70;81.60
53282;DHT22;39167;52.794;6.892;2022-07-18T12:41:59;27.80;79.70
53282;DHT22;39167;52.794;6.892;2022-07-18T12:44:28;27.90;80.20
53282;DHT22;39167;52.794;6.892;2022-07-18T12:46:55;28.00;81.40
53282;DHT22;39167;52.794;6.892;2022-07-18T12:49:21;28.10;80.90
53282;DHT22;39167;52.794;6.892;2022-07-18T12:51:47;28.10;81.90
53282;DHT22;39167;52.794;6.892;2022-07-18T12:54:15;28.20;80.80
53282;DHT22;39167;52.794;6.892;2022-07-18T12:56:40;28.20;80.40
53282;DHT22;39167;52.794;6.892;2022-07-18T12:59:06;28.20;82.00
53282;DHT22;39167;52.794;6.892;2022-07-18T13:01:32;28.20;80.80
53282;DHT22;39167;52.794;6.892;2022-07-18T13:03:58;28.30;81.10
53282;DHT22;39167;52.794;6.892;2022-07-18T13:06:23;28.40;81.60
53282;DHT22;39167;52.794;6.892;2022-07-18T13:08:49;28.50;80.10
53282;DHT22;39167;52.794;6.892;2022-07-18T13:11:15;28.60;80.30
53282;DHT22;39167;52.794;6.892;2022-07-18T13:13:41;28.70;80.20
53282;DHT22;39167;52.794;6.892;2022-07-18T13:16:06;28.80;78.70
53282;DHT22;39167;52.794;6.892;2022-07-18T13:18:32;28.90;79.40
53282;DHT22;39167;52.794;6.892;2022-07-18T13:20:58;28.90;78.50
53282;DHT22;39167;52.794;6.892;2022-07-18T13:23:26;28.90;78.50
53282;DHT22;39167;52.794;6.892;2022-07-18T13:25:52;28.90;78.30
53282;DHT22;39167;52.794;6.892;2022-07-18T13:28:18;29.00;79.60
53282;DHT22;39167;52.794;6.892;2022-07-18T13:30:44;29.00;77.90
53282;DHT22;39167;52.794;6.892;2022-07-18T13:33:10;29.00;78.10
53282;DHT22;39167;52.794;6.892;2022-07-18T13:35:36;29.00;78.10
53282;DHT22;39167;52.794;6.892;2022-07-18T13:38:04;29.00;79.70
53282;DHT22;39167;52.794;6.892;2022-07-18T13:40:30;29.10;78.50
53282;DHT22;39167;52.794;6.892;2022-07-18T13:42:56;29.20;78.80
53282;DHT22;39167;52.794;6.892;2022-07-18T13:45:22;29.20;80.00
53282;DHT22;39167;52.794;6.892;2022-07-18T13:47:48;29.30;79.50
53282;DHT22;39167;52.794;6.892;2022-07-18T13:50:14;29.20;80.00
53282;DHT22;39167;52.794;6.892;2022-07-18T13:52:39;29.20;80.00
53282;DHT22;39167;52.794;6.892;2022-07-18T13:55:05;29.00;77.90
53282;DHT22;39167;52.794;6.892;2022-07-18T13:57:31;29.10;78.70
53282;DHT22;39167;52.794;6.892;2022-07-18T13:59:57;29.00;80.30
53282;DHT22;39167;52.794;6.892;2022-07-18T14:02:23;29.00;79.10
53282;DHT22;39167;52.794;6.892;2022-07-18T14:04:49;28.90;77.20
53282;DHT22;39167;52.794;6.892;2022-07-18T14:07:14;28.80;77.30
53282;DHT22;39167;52.794;6.892;2022-07-18T14:09:43;28.80;78.60
53282;DHT22;39167;52.794;6.892;2022-07-18T14:12:09;28.90;80.50
53282;DHT22;39167;52.794;6.892;2022-07-18T14:14:35;29.10;80.00
53282;DHT22;39167;52.794;6.892;2022-07-18T14:17:01;29.30;79.40
53282;DHT22;39167;52.794;6.892;2022-07-18T14:19:26;29.40;78.30
53282;DHT22;39167;52.794;6.892;2022-07-18T14:21:52;29.50;77.30
53282;DHT22;39167;52.794;6.892;2022-07-18T14:24:18;29.50;76.10
53282;DHT22;39167;52.794;6.892;2022-07-18T14:26:43;29.60;75.60
53282;DHT22;39167;52.794;6.892;2022-07-18T14:29:09;29.60;76.00
53282;DHT22;39167;52.794;6.892;2022-07-18T14:31:35;29.60;75.60
53282;DHT22;39167;52.794;6.892;2022-07-18T14:34:00;29.70;74.90
53282;DHT22;39167;52.794;6.892;2022-07-18T14:36:26;29.70;73.80
53282;DHT22;39167;52.794;6.892;2022-07-18T14:38:52;29.70;74.40
53282;DHT22;39167;52.794;6.892;2022-07-18T14:41:18;29.60;74.80
53282;DHT22;39167;52.794;6.892;2022-07-18T14:43:44;29.60;75.20
53282;DHT22;39167;52.794;6.892;2022-07-18T14:46:10;29.60;74.80
53282;DHT22;39167;52.794;6.892;2022-07-18T14:48:36;29.70;75.50
53282;DHT22;39167;52.794;6.892;2022-07-18T14:51:01;29.80;73.70
53282;DHT22;39167;52.794;6.892;2022-07-18T14:53:31;29.80;73.50
53282;DHT22;39167;52.794;6.892;2022-07-18T14:58:32;30.10;73.00
53282;DHT22;39167;52.794;6.892;2022-07-18T15:00:58;30.20;71.50
53282;DHT22;39167;52.794;6.892;2022-07-18T15:03:24;30.20;71.40
53282;DHT22;39167;52.794;6.892;2022-07-18T15:05:50;30.20;71.80
53282;DHT22;39167;52.794;6.892;2022-07-18T15:08:15;30.20;70.50
53282;DHT22;39167;52.794;6.892;2022-07-18T15:10:41;30.20;70.20
53282;DHT22;39167;52.794;6.892;2022-07-18T15:13:07;30.20;71.90
53282;DHT22;39167;52.794;6.892;2022-07-18T15:15:35;30.30;71.00
53282;DHT22;39167;52.794;6.892;2022-07-18T15:18:01;30.30;70.60
53282;DHT22;39167;52.794;6.892;2022-07-18T15:20:26;30.30;69.10
53282;DHT22;39167;52.794;6.892;2022-07-18T15:22:52;30.40;69.60
53282;DHT22;39167;52.794;6.892;2022-07-18T15:25:18;30.60;70.80
53282;DHT22;39167;52.794;6.892;2022-07-18T15:27:44;30.70;69.50
53282;DHT22;39167;52.794;6.892;2022-07-18T15:30:10;30.70;68.20
53282;DHT22;39167;52.794;6.892;2022-07-18T15:32:35;30.80;69.40
53282;DHT22;39167;52.794;6.892;2022-07-18T15:35:01;30.90;68.10
53282;DHT22;39167;52.794;6.892;2022-07-18T15:37:31;30.80;66.90
53282;DHT22;39167;52.794;6.892;2022-07-18T15:40:15;30.80;67.30
53282;DHT22;39167;52.794;6.892;2022-07-18T15:52:50;30.90;64.90
53282;DHT22;39167;52.794;6.892;2022-07-18T15:59:06;31.00;66.70
53282;DHT22;39167;52.794;6.892;2022-07-18T16:01:49;31.00;66.40
53282;DHT22;39167;52.794;6.892;2022-07-18T16:04:34;31.00;64.30
53282;DHT22;39167;52.794;6.892;2022-07-18T16:07:00;31.00;64.50
53282;DHT22;39167;52.794;6.892;2022-07-18T16:09:26;31.00;64.50
53282;DHT22;39167;52.794;6.892;2022-07-18T16:11:52;31.00;64.80
53282;DHT22;39167;52.794;6.892;2022-07-18T16:14:18;31.00;65.30
53282;DHT22;39167;52.794;6.892;2022-07-18T16:16:59;31.10;65.50
53282;DHT22;39167;52.794;6.892;2022-07-18T16:19:25;31.20;65.30
53282;DHT22;39167;52.794;6.892;2022-07-18T16:21:50;31.20;63.50
53282;DHT22;39167;52.794;6.892;2022-07-18T16:24:16;31.20;64.50